Time;durP1;ratioP1;P1;durP2;ratioP2;P2;SDS_P1;SDS_P2;PMS_P1;PMS_P2;Temp;Humidity;BMP_temperature;BMP_pressure;BME280_temperature;BME280_humidity;BME280_pressure;Samples;Min_cycle;Max_cycle;Signal;HPM_P1;HPM_P2
2023/04/28 00:02:11;;;;;;;16.55;9.65;;;6.60;99.90;;;;;;5017735;28;210267;-69
2023/04/28 00:04:37;;;;;;;15.35;8.65;;;6.50;99.90;;;;;;5070259;28;20536;-68
2023/04/28 00:07:04;;;;;;;14.85;8.80;;;6.50;99.90;;;;;;5008814;28;221365;-68
2023/04/28 00:09:30;;;;;;;14.75;8.57;;;6.50;99.90;;;;;;5070469;28;20430;-68
2023/04/28 00:11:56;;;;;;;15.85;8.23;;;6.50;99.90;;;;;;5016520;28;213764;-68
2023/04/28 00:14:22;;;;;;;19.55;9.02;;;6.50;99.90;;;;;;5077105;28;20060;-68
2023/04/28 00:16:48;;;;;;;16.27;8.07;;;6.50;99.90;;;;;;5030756;28;208843;-68
2023/04/28 00:19:14;;;;;;;15.95;7.72;;;6.50;99.90;;;;;;5082519;28;20048;-69
2023/04/28 00:21:40;;;;;;;14.48;8.73;;;6.50;99.90;;;;;;5010418;28;205705;-68
2023/04/28 00:24:06;;;;;;;13.35;7.60;;;6.50;99.90;;;;;;5057868;28;20071;-67
2023/04/28 00:26:32;;;;;;;12.65;7.70;;;6.40;99.90;;;;;;5024301;28;210809;-68
2023/04/28 00:28:58;;;;;;;13.45;7.25;;;6.50;99.90;;;;;;5080514;28;20057;-68
2023/04/28 00:31:25;;;;;;;14.25;7.82;;;6.50;99.90;;;;;;5016847;28;210251;-68
2023/04/28 00:33:51;;;;;;;16.73;7.15;;;6.50;99.90;;;;;;5070934;28;20052;-68
2023/04/28 00:36:17;;;;;;;14.20;7.82;;;6.40;99.90;;;;;;5015443;28;215402;-68
2023/04/28 00:38:43;;;;;;;13.40;7.78;;;6.40;99.90;;;;;;5059524;28;20045;-70
2023/04/28 00:41:10;;;;;;;15.10;7.53;;;6.40;99.90;;;;;;5020635;28;210588;-68
2023/04/28 00:43:46;;;;;;;15.35;8.10;;;6.40;99.90;;;;;;5060409;28;20041;-69
2023/04/28 00:46:21;;;;;;;12.93;8.27;;;6.50;99.90;;;;;;5006831;28;212715;-67
2023/04/28 00:48:48;;;;;;;16.33;8.07;;;6.50;99.90;;;;;;5077243;28;20086;-68
2023/04/28 00:51:14;;;;;;;13.63;7.63;;;6.50;99.90;;;;;;5010990;28;214555;-68
2023/04/28 00:53:41;;;;;;;12.82;7.70;;;6.50;99.90;;;;;;5059537;28;20059;-67
2023/04/28 00:56:08;;;;;;;13.35;7.75;;;6.50;99.90;;;;;;5040977;28;213854;-68
2023/04/28 00:58:34;;;;;;;16.08;7.95;;;6.50;99.90;;;;;;5001686;28;225377;-68
2023/04/28 01:01:09;;;;;;;14.75;8.10;;;6.50;99.90;;;;;;5075605;28;20063;-68
2023/04/28 01:03:37;;;;;;;12.73;7.40;;;6.40;99.90;;;;;;5008630;28;40052;-68
2023/04/28 01:06:05;;;;;;;18.13;7.93;;;6.40;99.90;;;;;;5068515;28;212426;-67
2023/04/28 01:08:32;;;;;;;15.57;7.50;;;6.40;99.90;;;;;;5023318;28;220720;-68
2023/04/28 01:10:58;;;;;;;16.60;8.07;;;6.40;99.90;;;;;;5073022;28;20048;-67
2023/04/28 01:13:24;;;;;;;14.82;7.57;;;6.40;99.90;;;;;;4997794;28;210660;-67
2023/04/28 01:15:50;;;;;;;18.50;8.23;;;6.50;99.90;;;;;;5073778;28;20057;-69
2023/04/28 01:18:17;;;;;;;13.70;7.88;;;6.40;99.90;;;;;;5003483;28;212288;-68
2023/04/28 01:20:43;;;;;;;13.27;7.32;;;6.50;99.90;;;;;;5076457;28;20075;-68
2023/04/28 01:23:13;;;;;;;13.63;7.28;;;6.50;99.90;;;;;;5022393;28;209563;-68
2023/04/28 01:25:40;;;;;;;14.60;8.48;;;6.50;99.90;;;;;;5079022;28;20055;-67
2023/04/28 01:28:06;;;;;;;16.75;8.82;;;6.40;99.90;;;;;;5000472;28;211656;-69
2023/04/28 01:30:32;;;;;;;15.40;9.32;;;6.50;99.90;;;;;;5079700;28;20051;-68
2023/04/28 01:32:58;;;;;;;14.18;8.65;;;6.50;99.90;;;;;;5018419;28;209208;-69
2023/04/28 01:35:24;;;;;;;16.08;9.32;;;6.50;99.90;;;;;;5080025;28;20385;-69
2023/04/28 01:37:50;;;;;;;15.32;9.45;;;6.40;99.90;;;;;;5025073;28;211583;-69
2023/04/28 01:40:17;;;;;;;16.98;9.25;;;6.40;99.90;;;;;;5078213;28;20048;-68
2023/04/28 01:42:43;;;;;;;18.67;9.68;;;6.40;99.90;;;;;;5028505;28;224001;-69
2023/04/28 01:45:09;;;;;;;16.00;9.23;;;6.40;99.90;;;;;;5075542;28;20040;-68
2023/04/28 01:47:35;;;;;;;17.23;9.68;;;6.40;99.90;;;;;;5004399;28;217796;-68
2023/04/28 01:50:01;;;;;;;17.85;10.27;;;6.40;99.90;;;;;;5067364;28;20048;-67
2023/04/28 01:52:28;;;;;;;15.68;10.30;;;6.40;99.90;;;;;;5008531;28;213327;-68
2023/04/28 01:54:54;;;;;;;17.73;10.63;;;6.40;99.90;;;;;;5075209;28;20047;-68
2023/04/28 01:57:20;;;;;;;18.80;10.43;;;6.40;99.90;;;;;;4982008;28;215030;-68
2023/04/28 01:59:46;;;;;;;17.55;10.35;;;6.40;99.90;;;;;;5045714;28;20051;-68
2023/04/28 02:02:12;;;;;;;16.92;10.32;;;6.40;99.90;;;;;;4998125;28;206295;-68
2023/04/28 02:04:38;;;;;;;19.90;10.80;;;6.40;99.90;;;;;;5056696;28;20061;-68
2023/04/28 02:07:05;;;;;;;19.33;10.93;;;6.30;99.90;;;;;;5004019;28;212332;-68
2023/04/28 02:09:32;;;;;;;18.92;10.93;;;6.30;99.90;;;;;;5067218;28;20052;-68
2023/04/28 02:12:01;;;;;;;20.00;10.65;;;6.30;99.90;;;;;;4991202;28;212935;-68
2023/04/28 02:14:28;;;;;;;18.85;10.20;;;6.30;99.90;;;;;;5043323;28;20500;-68
2023/04/28 02:16:54;;;;;;;17.33;10.93;;;6.30;99.90;;;;;;4986677;28;209820;-69
2023/04/28 02:19:20;;;;;;;17.48;10.43;;;6.30;99.90;;;;;;5045623;28;20060;-67
2023/04/28 02:21:46;;;;;;;16.33;10.35;;;6.20;99.90;;;;;;4998229;28;210373;-67
2023/04/28 02:24:12;;;;;;;21.45;11.38;;;6.30;99.90;;;;;;5053592;28;20052;-68
2023/04/28 02:26:39;;;;;;;17.58;11.13;;;6.30;99.90;;;;;;4987390;28;210028;-68
2023/04/28 02:29:05;;;;;;;19.63;11.45;;;6.30;99.90;;;;;;5047409;28;20053;-69
2023/04/28 02:31:31;;;;;;;18.98;11.50;;;6.30;99.90;;;;;;4999250;28;209528;-69
2023/04/28 02:33:57;;;;;;;19.05;12.07;;;6.20;99.90;;;;;;5041957;28;20045;-68
2023/04/28 02:36:23;;;;;;;19.48;11.55;;;6.20;99.90;;;;;;4995901;28;210093;-68
2023/04/28 02:38:49;;;;;;;21.10;12.15;;;6.20;99.90;;;;;;5036543;28;20052;-69
2023/04/28 02:41:15;;;;;;;18.67;11.55;;;6.20;99.90;;;;;;4990386;28;211867;-68
2023/04/28 02:43:42;;;;;;;20.92;12.45;;;6.20;99.90;;;;;;5051016;28;20057;-69
2023/04/28 02:46:08;;;;;;;19.92;11.48;;;6.10;99.90;;;;;;5015550;28;216350;-67
2023/04/28 02:48:35;;;;;;;22.52;12.32;;;6.10;99.90;;;;;;5029910;28;20053;-68
2023/04/28 02:51:02;;;;;;;18.05;11.65;;;6.10;99.90;;;;;;5061154;28;20052;-69
2023/04/28 02:53:28;;;;;;;19.85;12.23;;;6.10;99.90;;;;;;4998287;28;207337;-69
2023/04/28 02:55:54;;;;;;;20.42;12.50;;;6.10;99.90;;;;;;5060348;28;20418;-69
2023/04/28 02:58:20;;;;;;;19.35;12.57;;;6.10;99.90;;;;;;4989084;28;211106;-69
2023/04/28 03:00:46;;;;;;;18.27;12.05;;;6.10;99.90;;;;;;5056024;28;20415;-68
2023/04/28 03:03:12;;;;;;;20.38;12.63;;;6.10;99.90;;;;;;4978943;28;210079;-69
2023/04/28 03:05:38;;;;;;;20.98;12.63;;;6.10;99.90;;;;;;5055227;28;20044;-68
2023/04/28 03:08:05;;;;;;;21.67;13.07;;;6.10;99.90;;;;;;5001567;28;207709;-68
2023/04/28 03:10:31;;;;;;;22.52;14.10;;;6.00;99.90;;;;;;5055206;28;20526;-69
2023/04/28 03:12:57;;;;;;;21.80;13.60;;;6.10;99.90;;;;;;5002807;28;209708;-69
2023/04/28 03:15:23;;;;;;;25.80;14.02;;;6.10;99.90;;;;;;5059154;28;20060;-68
2023/04/28 03:17:49;;;;;;;20.23;13.30;;;6.10;99.90;;;;;;5001304;28;209677;-69
2023/04/28 03:20:15;;;;;;;21.20;12.57;;;6.10;99.90;;;;;;5049896;28;20053;-69
2023/04/28 03:22:41;;;;;;;22.25;13.75;;;6.10;99.90;;;;;;4977104;28;205562;-69
2023/04/28 03:25:07;;;;;;;23.73;13.40;;;6.10;99.90;;;;;;5048085;28;20064;-68
2023/04/28 03:27:34;;;;;;;22.60;14.68;;;6.10;99.90;;;;;;4994075;28;210994;-69
2023/04/28 03:30:00;;;;;;;22.08;13.88;;;6.10;99.90;;;;;;5057723;28;20052;-69
2023/04/28 03:32:26;;;;;;;22.50;14.07;;;6.10;99.90;;;;;;4989347;28;207523;-69
2023/04/28 03:34:52;;;;;;;22.17;13.45;;;6.10;99.90;;;;;;5058230;28;20049;-69
2023/04/28 03:37:18;;;;;;;24.25;14.05;;;6.10;99.90;;;;;;4994972;28;215394;-69
2023/04/28 03:39:44;;;;;;;26.33;14.57;;;6.10;99.90;;;;;;5043382;28;20052;-69
2023/04/28 03:42:10;;;;;;;23.90;15.00;;;6.10;99.90;;;;;;5002654;28;206416;-69
2023/04/28 03:44:36;;;;;;;25.20;13.93;;;6.00;99.90;;;;;;5051241;28;20052;-68
2023/04/28 03:47:02;;;;;;;25.50;15.85;;;6.10;99.90;;;;;;4994365;28;212448;-69
2023/04/28 03:49:28;;;;;;;23.30;15.10;;;6.10;99.90;;;;;;5040495;28;20070;-69
2023/04/28 03:51:55;;;;;;;24.15;14.27;;;6.10;99.90;;;;;;5001080;28;219448;-69
2023/04/28 03:54:21;;;;;;;27.42;14.52;;;6.10;99.90;;;;;;5049145;28;20519;-70
2023/04/28 03:56:47;;;;;;;25.02;15.38;;;6.10;99.90;;;;;;4985759;28;213821;-68
2023/04/28 03:59:13;;;;;;;22.30;14.05;;;6.10;99.90;;;;;;5051325;28;20613;-69
2023/04/28 04:01:39;;;;;;;27.90;15.85;;;6.10;99.90;;;;;;5005281;28;212597;-69
2023/04/28 04:04:05;;;;;;;23.67;14.60;;;6.00;99.90;;;;;;5045028;28;20056;-69
2023/04/28 04:06:32;;;;;;;25.25;15.77;;;6.10;99.90;;;;;;5001363;28;217124;-69
2023/04/28 04:08:58;;;;;;;23.30;15.52;;;6.00;99.90;;;;;;5058541;28;20052;-68
2023/04/28 04:11:24;;;;;;;23.17;15.60;;;6.10;99.90;;;;;;4991995;28;217146;-69
2023/04/28 04:13:50;;;;;;;26.73;16.05;;;6.00;99.90;;;;;;5056159;28;20403;-68
2023/04/28 04:16:16;;;;;;;22.92;14.95;;;6.00;99.90;;;;;;5002471;28;212282;-67
2023/04/28 04:18:42;;;;;;;25.50;15.35;;;6.00;99.90;;;;;;5059186;28;20052;-67
2023/04/28 04:21:08;;;;;;;25.50;15.02;;;6.00;99.90;;;;;;5017789;28;212146;-67
2023/04/28 04:23:34;;;;;;;26.35;15.80;;;6.00;99.90;;;;;;5035238;28;20072;-68
2023/04/28 04:26:00;;;;;;;24.35;15.52;;;6.00;99.90;;;;;;5058716;28;20517;-69
2023/04/28 04:28:27;;;;;;;25.23;15.65;;;6.00;99.90;;;;;;5020413;28;107603;-69
2023/04/28 04:30:53;;;;;;;26.63;16.20;;;6.00;99.90;;;;;;5080316;28;20052;-68
2023/04/28 04:33:19;;;;;;;25.55;16.23;;;6.10;99.90;;;;;;5021031;28;217711;-67
2023/04/28 04:35:45;;;;;;;24.70;16.17;;;6.10;99.90;;;;;;5077255;28;20064;-68
2023/04/28 04:38:12;;;;;;;28.27;16.55;;;6.00;99.90;;;;;;5009226;28;218449;-68
2023/04/28 04:40:38;;;;;;;23.85;15.77;;;6.10;99.90;;;;;;5073627;28;20406;-68
2023/04/28 04:43:04;;;;;;;24.55;16.95;;;6.10;99.90;;;;;;5005497;28;214792;-68
2023/04/28 04:45:31;;;;;;;22.80;15.93;;;6.00;99.90;;;;;;5058951;28;20052;-69
2023/04/28 04:47:57;;;;;;;25.45;16.40;;;6.00;99.90;;;;;;5028885;28;208954;-68
2023/04/28 04:50:24;;;;;;;26.92;16.45;;;6.00;99.90;;;;;;5076360;28;20051;-68
2023/04/28 04:52:50;;;;;;;26.80;16.23;;;6.00;99.90;;;;;;4999824;28;157962;-68
2023/04/28 04:55:16;;;;;;;26.65;16.13;;;6.10;99.90;;;;;;5074235;28;20054;-69
2023/04/28 04:57:42;;;;;;;24.45;15.38;;;6.10;99.90;;;;;;5011447;28;213630;-68
2023/04/28 05:00:09;;;;;;;28.67;16.70;;;6.10;99.90;;;;;;5075269;28;20755;-68
2023/04/28 05:02:35;;;;;;;31.90;16.08;;;6.10;99.90;;;;;;4995031;28;207726;-67
2023/04/28 05:05:01;;;;;;;27.52;16.63;;;6.10;99.90;;;;;;5054351;28;20055;-68
2023/04/28 05:07:27;;;;;;;23.92;16.02;;;6.20;99.90;;;;;;5007382;28;209944;-69
2023/04/28 05:09:53;;;;;;;23.08;15.85;;;6.20;99.90;;;;;;5052620;28;20051;-68
2023/04/28 05:12:20;;;;;;;23.15;15.30;;;6.20;99.90;;;;;;5003799;28;212606;-68
2023/04/28 05:14:46;;;;;;;25.85;15.65;;;6.20;99.90;;;;;;5054902;28;20051;-69
2023/04/28 05:17:12;;;;;;;29.48;16.08;;;6.30;99.90;;;;;;5002220;28;210728;-69
2023/04/28 05:19:38;;;;;;;24.00;15.52;;;6.30;99.90;;;;;;5055555;28;20411;-69
2023/04/28 05:22:04;;;;;;;26.35;16.65;;;6.30;99.90;;;;;;4996161;28;209818;-69
2023/04/28 05:24:30;;;;;;;26.95;16.85;;;6.30;99.90;;;;;;5056142;28;20048;-69
2023/04/28 05:26:58;;;;;;;24.67;16.30;;;6.40;99.90;;;;;;4994039;28;210404;-69
2023/04/28 05:29:24;;;;;;;30.33;16.73;;;6.40;99.90;;;;;;5058056;28;20052;-69
2023/04/28 05:31:50;;;;;;;25.88;15.70;;;6.40;99.90;;;;;;4991191;28;215619;-69
2023/04/28 05:34:17;;;;;;;22.35;14.63;;;6.50;99.90;;;;;;5047911;28;20074;-70
2023/04/28 05:36:43;;;;;;;26.77;15.80;;;6.60;99.90;;;;;;4998901;28;211205;-69
2023/04/28 05:39:09;;;;;;;23.33;16.00;;;6.60;99.90;;;;;;5071836;28;20059;-70
2023/04/28 05:41:35;;;;;;;26.75;15.65;;;6.60;99.90;;;;;;5025998;28;104571;-69
2023/04/28 05:44:02;;;;;;;26.35;16.02;;;6.70;99.90;;;;;;5077276;28;20056;-72
2023/04/28 05:46:28;;;;;;;23.77;16.35;;;6.70;99.90;;;;;;5018922;28;209629;-69
2023/04/28 05:48:54;;;;;;;28.20;17.15;;;6.80;99.90;;;;;;5077019;28;20154;-68
2023/04/28 05:51:21;;;;;;;25.80;17.03;;;6.80;99.90;;;;;;5019290;28;217526;-68
2023/04/28 05:53:47;;;;;;;25.80;15.88;;;6.80;99.90;;;;;;5078999;28;20050;-69
2023/04/28 05:56:15;;;;;;;25.27;15.70;;;6.80;99.90;;;;;;4999487;28;210568;-68
2023/04/28 05:58:43;;;;;;;21.90;14.15;;;6.80;99.90;;;;;;5060685;28;20056;-68
2023/04/28 06:01:10;;;;;;;26.50;15.70;;;6.80;99.90;;;;;;5029289;28;213160;-68
2023/04/28 06:03:36;;;;;;;25.08;15.48;;;6.90;99.90;;;;;;5050983;28;20445;-69
2023/04/28 06:06:02;;;;;;;24.00;14.15;;;6.90;99.90;;;;;;5065810;28;210407;-67
2023/04/28 06:08:29;;;;;;;25.15;14.30;;;7.00;99.90;;;;;;5003297;28;203803;-70
2023/04/28 06:10:55;;;;;;;28.67;14.77;;;7.00;99.90;;;;;;5055283;28;20040;-68
2023/04/28 06:13:21;;;;;;;24.65;16.23;;;7.00;99.90;;;;;;4993287;28;214185;-69
2023/04/28 06:15:47;;;;;;;24.50;14.60;;;7.00;99.90;;;;;;5048442;28;20056;-68
2023/04/28 06:18:15;;;;;;;24.02;14.90;;;7.00;99.90;;;;;;4988775;28;214250;-68
2023/04/28 06:20:41;;;;;;;23.05;15.27;;;7.00;99.90;;;;;;5048147;28;20428;-69
2023/04/28 06:23:08;;;;;;;25.42;14.57;;;7.00;99.90;;;;;;4986864;28;219585;-67
2023/04/28 06:25:35;;;;;;;28.05;15.40;;;7.10;99.90;;;;;;5051532;28;20048;-69
2023/04/28 06:28:02;;;;;;;21.42;14.82;;;7.10;99.90;;;;;;4989901;28;211030;-69
2023/04/28 06:30:28;;;;;;;22.85;15.15;;;7.20;99.90;;;;;;5052345;28;20053;-69
2023/04/28 06:32:56;;;;;;;21.67;13.80;;;7.20;99.90;;;;;;5003524;28;207208;-69
2023/04/28 06:35:22;;;;;;;24.55;14.43;;;7.20;99.90;;;;;;5053644;28;20127;-69
2023/04/28 06:37:48;;;;;;;22.70;13.73;;;7.20;99.90;;;;;;4999728;28;209907;-69
2023/04/28 06:40:15;;;;;;;23.85;14.68;;;7.30;99.90;;;;;;5078283;28;20056;-69
2023/04/28 06:42:41;;;;;;;25.73;14.13;;;7.30;99.90;;;;;;5001643;28;218389;-69
2023/04/28 06:45:07;;;;;;;22.75;13.15;;;7.30;99.90;;;;;;5069723;28;20059;-70
2023/04/28 06:47:35;;;;;;;22.17;14.05;;;7.40;99.90;;;;;;5035167;28;210988;-69
2023/04/28 06:50:01;;;;;;;24.17;14.10;;;7.50;99.90;;;;;;5072856;28;21266;-69
2023/04/28 06:52:28;;;;;;;20.08;13.57;;;7.50;99.90;;;;;;5003613;28;210939;-69
2023/04/28 06:54:54;;;;;;;20.92;13.65;;;7.60;99.90;;;;;;5061784;28;20449;-69
2023/04/28 06:57:21;;;;;;;22.05;13.95;;;7.70;99.90;;;;;;4983821;28;208904;-72
2023/04/28 06:59:47;;;;;;;22.73;14.18;;;7.90;99.90;;;;;;5065011;28;20053;-69
2023/04/28 07:02:13;;;;;;;21.75;13.55;;;8.00;99.90;;;;;;5022999;28;214910;-72
2023/04/28 07:04:39;;;;;;;23.13;13.75;;;8.10;99.90;;;;;;5069919;28;20515;-72
2023/04/28 07:07:07;;;;;;;22.27;13.70;;;8.20;99.90;;;;;;5011691;28;206787;-72
2023/04/28 07:09:34;;;;;;;20.90;14.07;;;8.50;99.90;;;;;;5064120;28;20076;-74
2023/04/28 07:12:00;;;;;;;22.77;13.02;;;8.60;99.90;;;;;;5005913;28;218751;-69
2023/04/28 07:14:26;;;;;;;23.05;13.27;;;8.70;99.90;;;;;;5051199;28;20068;-69
2023/04/28 07:16:52;;;;;;;21.40;12.45;;;8.80;99.90;;;;;;5015543;28;210198;-71
2023/04/28 07:19:18;;;;;;;23.80;13.20;;;9.00;99.90;;;;;;5072369;28;20056;-70
2023/04/28 07:21:45;;;;;;;20.15;12.35;;;9.00;99.90;;;;;;5013831;28;210972;-72
2023/04/28 07:24:11;;;;;;;20.35;12.23;;;9.00;99.90;;;;;;5054061;28;20070;-71
2023/04/28 07:26:37;;;;;;;19.77;12.80;;;9.20;99.90;;;;;;5016458;28;226635;-71
2023/04/28 07:29:03;;;;;;;20.08;12.90;;;9.40;99.90;;;;;;5074708;28;20714;-71
2023/04/28 07:31:29;;;;;;;19.80;11.80;;;9.50;99.90;;;;;;5010923;28;209331;-71
2023/04/28 07:33:55;;;;;;;19.60;12.13;;;9.60;99.90;;;;;;5061340;28;20067;-71
2023/04/28 07:36:22;;;;;;;19.88;12.30;;;9.60;99.90;;;;;;5023820;28;210745;-72
2023/04/28 07:38:48;;;;;;;19.52;12.07;;;9.60;99.90;;;;;;5067293;28;20051;-72
2023/04/28 07:41:16;;;;;;;20.77;12.23;;;9.70;99.90;;;;;;5018123;28;210899;-73
2023/04/28 07:43:42;;;;;;;19.83;11.80;;;9.70;99.90;;;;;;5055656;28;20057;-71
2023/04/28 07:46:09;;;;;;;20.20;12.07;;;9.70;99.90;;;;;;5020787;28;212617;-71
2023/04/28 07:48:35;;;;;;;20.20;11.60;;;9.80;99.90;;;;;;5071672;28;20055;-72
2023/04/28 07:51:01;;;;;;;20.27;11.85;;;9.80;99.90;;;;;;5068698;28;20048;-71
2023/04/28 07:53:27;;;;;;;19.55;11.35;;;10.00;99.90;;;;;;5032465;28;223873;-72
2023/04/28 07:55:54;;;;;;;18.42;11.32;;;10.10;99.90;;;;;;5078879;28;20056;-71
2023/04/28 07:58:20;;;;;;;17.13;11.38;;;10.20;99.90;;;;;;4996184;28;207346;-72
2023/04/28 08:00:46;;;;;;;19.42;11.18;;;10.30;99.90;;;;;;5073901;28;20556;-71
2023/04/28 08:03:12;;;;;;;18.30;11.38;;;10.40;99.90;;;;;;5013165;28;212788;-70
2023/04/28 08:05:38;;;;;;;19.67;11.65;;;10.50;99.90;;;;;;5069003;28;20056;-69
2023/04/28 08:08:04;;;;;;;19.95;11.30;;;10.80;99.90;;;;;;4991490;28;211517;-70
2023/04/28 08:10:31;;;;;;;16.13;10.68;;;11.00;99.90;;;;;;5056874;28;20048;-71
2023/04/28 08:12:57;;;;;;;16.73;11.10;;;11.10;99.90;;;;;;4999346;28;211716;-70
2023/04/28 08:15:23;;;;;;;17.98;10.65;;;11.10;99.90;;;;;;5072302;28;20422;-71
2023/04/28 08:17:49;;;;;;;15.38;10.13;;;11.20;99.90;;;;;;4987251;28;223255;-71
2023/04/28 08:20:18;;;;;;;16.95;10.48;;;11.10;99.90;;;;;;5050899;28;20680;-71
2023/04/28 08:22:45;;;;;;;17.27;10.30;;;11.20;99.90;;;;;;4991754;28;210534;-70
2023/04/28 08:25:11;;;;;;;16.65;10.35;;;11.20;99.90;;;;;;5052523;28;20057;-71
2023/04/28 08:27:38;;;;;;;16.15;10.48;;;11.20;99.90;;;;;;4980491;28;208092;-72
2023/04/28 08:30:07;;;;;;;22.10;10.48;;;11.20;99.90;;;;;;5053098;28;20053;-71
2023/04/28 08:32:33;;;;;;;16.95;11.35;;;11.00;99.90;;;;;;5000905;28;207946;-71
2023/04/28 08:34:59;;;;;;;18.50;11.23;;;10.90;99.90;;;;;;5054511;28;20052;-72
2023/04/28 08:37:27;;;;;;;17.20;11.18;;;10.80;99.90;;;;;;5002554;28;79262;-73
2023/04/28 08:40:01;;;;;;;21.80;11.68;;;10.70;99.90;;;;;;5067079;28;20055;-73
2023/04/28 08:42:33;;;;;;;22.45;12.30;;;10.70;99.90;;;;;;5024037;28;214764;-70
2023/04/28 08:45:00;;;;;;;20.60;11.93;;;10.70;99.90;;;;;;5067766;28;20687;-71
2023/04/28 08:47:33;;;;;;;22.15;12.35;;;10.80;99.90;;;;;;5005218;28;217496;-71
2023/04/28 08:50:11;;;;;;;19.05;12.15;;;11.00;99.90;;;;;;5072681;28;20551;-69
2023/04/28 08:52:38;;;;;;;21.65;12.50;;;11.30;99.90;;;;;;4997130;28;211360;-68
2023/04/28 08:55:11;;;;;;;19.45;12.27;;;11.70;99.90;;;;;;5060530;28;20055;-69
2023/04/28 08:57:41;;;;;;;17.50;12.30;;;12.70;99.90;;;;;;4994838;28;209461;-69
2023/04/28 09:00:09;;;;;;;18.05;12.18;;;13.50;99.90;;;;;;5074073;28;20059;-69
2023/04/28 09:02:36;;;;;;;18.60;11.95;;;14.40;99.90;;;;;;5020093;27;216686;-69
2023/04/28 09:05:10;;;;;;;17.90;10.75;;;15.40;99.90;;;;;;5068614;28;20063;-70
2023/04/28 09:07:37;;;;;;;16.30;10.52;;;16.00;99.90;;;;;;5024052;28;213988;-70
2023/04/28 09:10:23;;;;;;;16.20;10.13;;;16.10;99.90;;;;;;5069198;28;20048;-70
2023/04/28 09:12:53;;;;;;;18.63;9.48;;;16.10;99.90;;;;;;5014290;28;220288;-69
2023/04/28 09:15:36;;;;;;;14.52;9.70;;;15.80;99.90;;;;;;5067812;28;20068;-70
2023/04/28 09:18:03;;;;;;;16.20;9.80;;;15.40;99.90;;;;;;5006648;28;216100;-70
2023/04/28 09:20:31;;;;;;;16.45;9.57;;;15.20;99.90;;;;;;5069116;28;20498;-70
2023/04/28 09:23:16;;;;;;;16.33;9.25;;;14.60;99.90;;;;;;5012648;28;216835;-70
2023/04/28 09:26:14;;;;;;;16.15;9.57;;;14.40;99.90;;;;;;5053544;28;20423;-69
2023/04/28 09:28:40;;;;;;;14.43;9.40;;;14.10;99.90;;;;;;4989450;28;77038;-70
2023/04/28 09:31:22;;;;;;;17.95;9.85;;;13.80;99.90;;;;;;5029847;28;209140;-69
2023/04/28 09:33:59;;;;;;;15.38;9.77;;;13.80;99.90;;;;;;5036063;28;20040;-69
2023/04/28 09:36:28;;;;;;;18.00;9.80;;;13.60;99.90;;;;;;5018276;28;216664;-69
2023/04/28 09:38:58;;;;;;;17.10;9.68;;;13.80;99.90;;;;;;5040421;28;20533;-70
2023/04/28 09:41:52;;;;;;;16.67;10.00;;;13.90;99.90;;;;;;5012129;28;223441;-69
2023/04/28 09:44:20;;;;;;;15.80;9.95;;;14.00;99.90;;;;;;5060369;28;20061;-70
2023/04/28 09:46:47;;;;;;;16.73;9.65;;;14.20;99.90;;;;;;5011020;28;212962;-70
2023/04/28 09:49:14;;;;;;;14.63;10.18;;;14.40;99.90;;;;;;5075435;28;20044;-70
2023/04/28 09:51:40;;;;;;;14.48;9.30;;;14.60;99.90;;;;;;5008941;28;210529;-70
2023/04/28 09:54:07;;;;;;;15.02;9.60;;;14.30;99.90;;;;;;5062277;28;20063;-70
2023/04/28 09:56:37;;;;;;;16.30;9.25;;;14.30;99.90;;;;;;5000156;28;209678;-70
2023/04/28 09:59:03;;;;;;;17.67;10.10;;;14.10;99.90;;;;;;5072595;28;20067;-70
2023/04/28 10:01:40;;;;;;;16.55;9.75;;;14.10;99.90;;;;;;5003704;28;224467;-70
2023/04/28 10:04:07;;;;;;;15.23;9.85;;;14.20;99.90;;;;;;5063635;28;20063;-70
2023/04/28 10:06:38;;;;;;;14.85;9.75;;;14.20;99.90;;;;;;5013921;28;220070;-69
2023/04/28 10:09:05;;;;;;;15.05;10.15;;;14.40;99.90;;;;;;5057539;28;20056;-70
2023/04/28 10:11:32;;;;;;;15.23;9.23;;;14.60;99.90;;;;;;5007974;28;230743;-70
2023/04/28 10:13:58;;;;;;;15.10;9.38;;;14.80;99.90;;;;;;5047562;28;20056;-69
2023/04/28 10:16:29;;;;;;;19.02;9.90;;;14.80;99.90;;;;;;5071851;28;20048;-70
2023/04/28 10:18:56;;;;;;;16.70;9.15;;;15.10;99.90;;;;;;5072570;28;20063;-70
2023/04/28 10:21:24;;;;;;;14.90;9.25;;;15.50;99.90;;;;;;5073867;28;20044;-70
2023/04/28 10:24:20;;;;;;;15.90;9.20;;;15.60;99.90;;;;;;5073011;28;20056;-70
2023/04/28 10:27:02;;;;;;;15.98;9.15;;;15.80;99.90;;;;;;5075921;27;20047;-70
2023/04/28 10:29:30;;;;;;;26.80;10.15;;;15.90;99.90;;;;;;5074606;28;20044;-70
2023/04/28 10:32:20;;;;;;;13.65;8.68;;;16.20;99.90;;;;;;5072464;28;20056;-71
2023/04/28 10:34:47;;;;;;;14.05;8.38;;;16.30;99.90;;;;;;5018176;28;216990;-70
2023/04/28 10:37:14;;;;;;;14.73;8.02;;;16.40;99.90;;;;;;5054572;28;20069;-69
2023/04/28 10:40:00;;;;;;;14.50;8.45;;;16.30;99.90;;;;;;5010351;28;210195;-70
2023/04/28 10:42:53;;;;;;;15.40;8.30;;;16.40;99.90;;;;;;5074148;28;20048;-70
2023/04/28 10:45:53;;;;;;;14.32;8.32;;;16.30;99.90;;;;;;4996968;28;208794;-70
2023/04/28 10:48:42;;;;;;;13.50;7.73;;;16.10;99.90;;;;;;5021586;28;218547;-70
2023/04/28 10:51:15;;;;;;;15.63;8.40;;;15.70;99.90;;;;;;5073470;28;20055;-70
2023/04/28 10:53:44;;;;;;;14.20;8.20;;;15.40;99.90;;;;;;5017573;28;214092;-70
2023/04/28 10:56:15;;;;;;;14.98;8.20;;;15.30;99.90;;;;;;5061954;28;20047;-69
2023/04/28 10:58:44;;;;;;;13.45;7.95;;;15.20;99.90;;;;;;5009646;28;212742;-70
2023/04/28 11:03:46;;;;;;;15.95;8.45;;;15.10;99.90;;;;;;5005797;28;220125;-69
2023/04/28 11:06:25;;;;;;;14.57;8.30;;;15.10;99.90;;;;;;5066945;28;20055;-68
2023/04/28 11:08:54;;;;;;;15.38;8.20;;;15.20;99.90;;;;;;5014670;28;227225;-68
2023/04/28 11:11:24;;;;;;;18.15;8.73;;;15.20;99.90;;;;;;5066825;28;20059;-69
2023/04/28 11:13:53;;;;;;;14.93;7.90;;;15.40;99.90;;;;;;5021066;28;218828;-69
2023/04/28 11:16:21;;;;;;;15.52;8.50;;;15.60;99.90;;;;;;5054668;28;20404;-68
2023/04/28 11:19:02;;;;;;;13.48;8.50;;;15.80;99.90;;;;;;5011330;28;212877;-69
2023/04/28 11:21:28;;;;;;;;;;;15.90;99.90;;;;;;5069188;28;20059;-70
2023/04/28 11:23:56;;;;;;;12.27;7.45;;;15.90;99.90;;;;;;5009732;28;207651;-70
2023/04/28 11:26:22;;;;;;;13.82;8.52;;;15.90;99.90;;;;;;5070708;28;20043;-68
2023/04/28 11:28:53;;;;;;;14.95;8.02;;;16.00;99.90;;;;;;5022043;28;207727;-70
2023/04/28 11:31:22;;;;;;;14.25;8.13;;;15.90;99.90;;;;;;5088301;28;20110;-70
2023/04/28 11:34:00;;;;;;;15.55;8.18;;;15.80;99.90;;;;;;5019896;28;224698;-70
2023/04/28 11:36:44;;;;;;;13.95;8.00;;;15.80;99.90;;;;;;5065671;28;20048;-71
2023/04/28 11:39:11;;;;;;;12.88;8.02;;;15.90;99.90;;;;;;5026718;28;212594;-72
2023/04/28 11:41:40;;;;;;;12.02;7.93;;;15.80;99.90;;;;;;5079231;28;20040;-71
2023/04/28 11:44:17;;;;;;;13.05;7.88;;;15.80;99.90;;;;;;5038787;28;207265;-71
2023/04/28 11:46:49;;;;;;;14.43;8.00;;;15.70;99.90;;;;;;5087505;28;20059;-71
2023/04/28 11:49:16;;;;;;;14.82;8.27;;;15.70;99.90;;;;;;5030340;28;211056;-71
2023/04/28 11:51:45;;;;;;;14.50;8.10;;;15.70;99.90;;;;;;5071677;28;20399;-71
2023/04/28 11:54:13;;;;;;;14.00;8.05;;;15.50;99.90;;;;;;5012572;28;214479;-71
2023/04/28 11:56:41;;;;;;;15.73;8.32;;;15.50;99.90;;;;;;5063707;28;20075;-71
2023/04/28 11:59:09;;;;;;;17.27;7.85;;;15.40;99.90;;;;;;4976390;28;216701;-71
2023/04/28 12:01:45;;;;;;;14.68;7.88;;;15.50;99.90;;;;;;5061570;28;20056;-71
2023/04/28 12:04:12;;;;;;;16.52;8.50;;;15.80;99.90;;;;;;5016615;28;214049;-71
2023/04/28 12:06:40;;;;;;;15.05;8.27;;;15.70;99.90;;;;;;5070047;28;20066;-71
2023/04/28 12:09:18;;;;;;;15.38;8.55;;;15.80;99.90;;;;;;5019511;28;83388;-71
2023/04/28 12:11:55;;;;;;;14.25;8.38;;;15.70;99.90;;;;;;5072334;28;20411;-71
2023/04/28 12:14:23;;;;;;;17.20;8.38;;;15.60;99.90;;;;;;5024012;28;208771;-71
2023/04/28 12:16:49;;;;;;;15.05;8.70;;;15.40;99.90;;;;;;5083546;28;20066;-71
2023/04/28 12:19:16;;;;;;;14.48;8.02;;;15.40;99.90;;;;;;5007277;28;220993;-70
2023/04/28 12:21:43;;;;;;;14.55;8.05;;;15.30;99.90;;;;;;5057026;28;20415;-71
2023/04/28 12:24:21;;;;;;;14.40;8.50;;;15.40;99.90;;;;;;4998572;28;210774;-71
2023/04/28 12:26:48;;;;;;;15.45;8.20;;;15.40;99.90;;;;;;5055958;28;20055;-71
2023/04/28 12:29:49;;;;;;;15.52;9.07;;;15.30;99.90;;;;;;5004028;28;214305;-72
2023/04/28 12:32:16;;;;;;;15.43;9.13;;;15.30;99.90;;;;;;5052651;28;20037;-71
2023/04/28 12:34:44;;;;;;;15.43;8.88;;;15.20;99.90;;;;;;4988820;28;209481;-70
2023/04/28 12:37:11;;;;;;;14.60;8.75;;;15.10;99.90;;;;;;5055894;28;21645;-71
2023/04/28 12:39:39;;;;;;;14.20;8.65;;;15.20;99.90;;;;;;4989603;28;211038;-71
2023/04/28 12:42:06;;;;;;;14.73;8.63;;;15.20;99.90;;;;;;5056539;28;20462;-72